Time;durP1;ratioP1;P1;durP2;ratioP2;P2;SDS_P1;SDS_P2;PMS_P1;PMS_P2;Temp;Humidity;BMP_temperature;BMP_pressure;BME280_temperature;BME280_humidity;BME280_pressure;Samples;Min_cycle;Max_cycle;Signal;HPM_P1;HPM_P2
2022/12/04 00:00:07;;;;;;;0.10;0.10;;;5.50;99.90;;;;;;5037648;28;20944;-82
2022/12/04 00:02:33;;;;;;;1.73;0.75;;;5.40;99.90;;;;;;5031690;28;20029;-87
2022/12/04 00:04:59;;;;;;;0.28;0.28;;;5.30;99.90;;;;;;5038128;28;20051;-83
2022/12/04 00:07:25;;;;;;;0.38;0.38;;;5.20;99.90;;;;;;5046563;28;21631;-82
2022/12/04 00:09:50;;;;;;;1.20;0.80;;;5.10;99.90;;;;;;5052410;28;20432;-80
2022/12/04 00:12:16;;;;;;;0.35;0.35;;;5.00;99.90;;;;;;5046986;28;20090;-83
2022/12/04 00:14:42;;;;;;;0.75;0.75;;;4.90;99.90;;;;;;5045531;28;20036;-86
2022/12/04 00:17:07;;;;;;;1.25;0.68;;;4.80;99.90;;;;;;5043009;28;20119;-81
2022/12/04 00:19:33;;;;;;;0.32;0.32;;;4.80;99.90;;;;;;5045527;28;20535;-83
2022/12/04 00:21:59;;;;;;;0.30;0.30;;;4.70;99.90;;;;;;5043670;28;20749;-81
2022/12/04 00:24:24;;;;;;;0.50;0.50;;;4.70;99.90;;;;;;5047483;28;20051;-80
2022/12/04 00:26:51;;;;;;;0.40;0.40;;;4.70;99.90;;;;;;5047514;28;20033;-80
2022/12/04 00:29:17;;;;;;;0.40;0.40;;;4.80;99.90;;;;;;5030045;28;20029;-85
2022/12/04 00:31:43;;;;;;;1.48;0.82;;;4.90;99.90;;;;;;5051898;28;20041;-82
2022/12/04 00:34:09;;;;;;;0.95;0.95;;;5.00;99.90;;;;;;5034314;28;20658;-81
2022/12/04 00:36:35;;;;;;;0.47;0.47;;;5.00;99.90;;;;;;5051835;28;20078;-81
2022/12/04 00:39:02;;;;;;;0.35;0.35;;;5.10;99.90;;;;;;5052211;28;20868;-81
2022/12/04 00:41:29;;;;;;;6.35;0.57;;;5.00;99.90;;;;;;5032630;28;20492;-82
2022/12/04 00:43:55;;;;;;;0.57;0.57;;;5.10;99.90;;;;;;5050498;28;20053;-80
2022/12/04 00:46:21;;;;;;;0.30;0.30;;;5.10;99.90;;;;;;5051329;28;20033;-82
2022/12/04 00:48:47;;;;;;;0.20;0.20;;;5.20;99.90;;;;;;5052158;28;20044;-81
2022/12/04 00:51:19;;;;;;;0.40;0.40;;;5.30;99.90;;;;;;5051977;28;20572;-80
2022/12/04 00:53:45;;;;;;;0.38;0.38;;;5.30;99.90;;;;;;5052584;28;20520;-80
2022/12/04 00:56:13;;;;;;;0.10;0.10;;;5.30;99.90;;;;;;5051695;28;20043;-82
2022/12/04 00:58:39;;;;;;;0.20;0.20;;;5.40;99.90;;;;;;5055631;28;20033;-82
2022/12/04 01:01:15;;;;;;;0.47;0.47;;;5.40;99.90;;;;;;5051628;28;20560;-81
2022/12/04 01:03:42;;;;;;;20.50;6.07;;;5.40;99.90;;;;;;5052554;28;20036;-83
2022/12/04 01:06:19;;;;;;;6.32;4.57;;;5.30;99.90;;;;;;5052260;28;20029;-81
2022/12/04 01:08:44;;;;;;;;;;;5.30;99.90;;;;;;5035561;28;20029;-83
2022/12/04 01:11:10;;;;;;;3.00;2.80;;;5.40;99.90;;;;;;5051747;28;19923;-82
2022/12/04 01:13:35;;;;;;;1.95;1.83;;;5.40;99.90;;;;;;5034212;28;20036;-82
2022/12/04 01:16:01;;;;;;;1.13;1.13;;;5.40;99.90;;;;;;5052067;28;20033;-82
2022/12/04 01:18:27;;;;;;;0.40;0.40;;;5.20;99.90;;;;;;5051875;28;20033;-82
2022/12/04 01:20:52;;;;;;;0.10;0.10;;;5.20;99.90;;;;;;5051141;28;20681;-83
2022/12/04 01:23:19;;;;;;;0.85;0.82;;;5.20;99.90;;;;;;5065925;28;20563;-81
2022/12/04 01:25:51;;;;;;;0.63;0.63;;;5.20;99.90;;;;;;5050781;28;20116;-83
2022/12/04 01:28:17;;;;;;;0.80;0.80;;;5.10;99.90;;;;;;5051096;28;20040;-83
2022/12/04 01:30:43;;;;;;;2.45;0.70;;;5.20;99.90;;;;;;5050519;28;20033;-83
2022/12/04 01:33:08;;;;;;;0.30;0.30;;;5.20;99.90;;;;;;5050465;28;20108;-83
2022/12/04 01:35:34;;;;;;;0.85;0.73;;;5.20;99.90;;;;;;5051311;28;20056;-82
2022/12/04 01:38:00;;;;;;;1.33;0.93;;;5.20;99.90;;;;;;5050238;28;20039;-82
2022/12/04 01:40:25;;;;;;;1.83;0.60;;;5.00;99.90;;;;;;5033043;28;20040;-83
2022/12/04 01:42:51;;;;;;;0.28;0.28;;;5.00;99.90;;;;;;5051098;28;20029;-82
2022/12/04 01:45:36;;;;;;;0.10;0.10;;;5.00;99.90;;;;;;5050613;28;20025;-79
2022/12/04 01:48:14;;;;;;;0.13;0.13;;;5.00;99.90;;;;;;5049492;28;20066;-79
2022/12/04 01:50:42;;;;;;;1.38;0.85;;;5.00;99.90;;;;;;5050575;28;20029;-80
2022/12/04 01:53:07;;;;;;;0.13;0.13;;;5.00;99.90;;;;;;5048228;28;20032;-80
2022/12/04 01:55:33;;;;;;;0.20;0.20;;;5.10;99.90;;;;;;5032502;28;20412;-79
2022/12/04 01:58:00;;;;;;;0.40;0.40;;;5.20;99.90;;;;;;5050734;28;20061;-81
2022/12/04 02:00:26;;;;;;;0.10;0.10;;;5.10;99.90;;;;;;5048652;28;20041;-81
2022/12/04 02:02:53;;;;;;;0.38;0.25;;;5.10;99.90;;;;;;5050941;28;20044;-81
2022/12/04 02:05:20;;;;;;;0.20;0.20;;;5.10;99.90;;;;;;5050224;28;20028;-81
2022/12/04 02:07:49;;;;;;;0.20;0.20;;;5.20;99.90;;;;;;5051687;28;20037;-81
2022/12/04 02:10:16;;;;;;;1.38;1.10;;;5.20;99.90;;;;;;5050053;28;20025;-82
2022/12/04 02:12:51;;;;;;;0.40;0.40;;;5.20;99.90;;;;;;5049954;28;20025;-81
2022/12/04 02:15:40;;;;;;;0.40;0.40;;;5.30;99.90;;;;;;5050110;28;20059;-81
2022/12/04 02:18:13;;;;;;;0.43;0.43;;;5.30;99.90;;;;;;5048435;28;20037;-82
2022/12/04 02:21:07;;;;;;;0.30;0.30;;;5.30;99.90;;;;;;5049515;28;20048;-81
2022/12/04 02:23:35;;;;;;;0.22;0.22;;;5.30;99.90;;;;;;5040256;28;20064;-81
2022/12/04 02:26:40;;;;;;;0.13;0.13;;;5.30;99.90;;;;;;5050034;28;20818;-81
2022/12/04 02:29:21;;;;;;;0.55;0.55;;;5.30;99.90;;;;;;5048889;28;20045;-82
2022/12/04 02:31:50;;;;;;;0.98;0.93;;;5.30;99.90;;;;;;5063526;28;20888;-82
2022/12/04 02:34:27;;;;;;;0.30;0.30;;;5.30;99.90;;;;;;5049589;28;20083;-82
2022/12/04 02:36:59;;;;;;;0.45;0.45;;;5.30;99.90;;;;;;5050168;28;20033;-82
2022/12/04 02:39:33;;;;;;;0.20;0.20;;;5.20;99.90;;;;;;5045666;28;20040;-81
2022/12/04 02:42:05;;;;;;;0.30;0.30;;;5.20;99.90;;;;;;5049368;28;20023;-80
2022/12/04 02:44:38;;;;;;;1.30;0.52;;;5.10;99.90;;;;;;5049828;28;20028;-82
2022/12/04 02:47:11;;;;;;;1.08;0.68;;;5.10;99.90;;;;;;5049705;28;20095;-80
2022/12/04 02:49:54;;;;;;;0.10;0.10;;;5.00;99.90;;;;;;5049605;28;20054;-81
2022/12/04 02:52:26;;;;;;;0.20;0.20;;;5.00;99.90;;;;;;5049306;28;20021;-81
2022/12/04 02:54:58;;;;;;;0.10;0.10;;;5.10;99.90;;;;;;5049184;28;20037;-81
2022/12/04 02:57:30;;;;;;;0.10;0.10;;;5.10;99.90;;;;;;5049233;28;20084;-81
2022/12/04 02:59:58;;;;;;;0.32;0.32;;;5.20;99.90;;;;;;5045750;28;20029;-81
2022/12/04 03:02:42;;;;;;;0.50;0.50;;;5.30;99.90;;;;;;5048620;28;20012;-80
2022/12/04 03:05:12;;;;;;;0.25;0.25;;;5.30;99.90;;;;;;5048993;28;20073;-80
2022/12/04 03:08:04;;;;;;;0.43;0.43;;;5.40;99.90;;;;;;5050100;28;20021;-80
2022/12/04 03:10:35;;;;;;;5.25;3.65;;;5.40;99.90;;;;;;5039982;28;20060;-81
2022/12/04 03:13:31;;;;;;;1.83;1.73;;;5.30;99.90;;;;;;5030514;28;20124;-79
2022/12/04 03:16:12;;;;;;;0.70;0.70;;;5.40;99.90;;;;;;5044652;28;20813;-80
2022/12/04 03:18:40;;;;;;;1.02;1.02;;;5.30;99.90;;;;;;5048736;28;20024;-80
2022/12/04 03:21:15;;;;;;;3.85;1.65;;;5.30;99.90;;;;;;5046933;28;20073;-80
2022/12/04 03:24:06;;;;;;;0.50;0.50;;;5.30;99.90;;;;;;5049386;28;20017;-80
2022/12/04 03:26:53;;;;;;;0.57;0.57;;;5.20;99.90;;;;;;5037103;28;20575;-80
2022/12/04 03:29:22;;;;;;;1.48;0.93;;;5.40;99.90;;;;;;5045931;28;20029;-82
2022/12/04 03:32:23;;;;;;;0.40;0.40;;;5.40;99.90;;;;;;5048416;28;20021;-81
2022/12/04 03:35:01;;;;;;;1.08;1.08;;;5.40;99.90;;;;;;4992803;28;20575;-81
2022/12/04 03:37:59;;;;;;;0.45;0.45;;;5.40;99.90;;;;;;5048865;28;20032;-83
2022/12/04 03:40:36;;;;;;;0.80;0.63;;;5.30;99.90;;;;;;5031177;28;20056;-83
2022/12/04 03:43:36;;;;;;;0.28;0.28;;;5.40;99.90;;;;;;5047836;28;20489;-84
2022/12/04 03:46:38;;;;;;;2.97;0.95;;;5.40;99.90;;;;;;5048477;28;20036;-83
2022/12/04 03:49:28;;;;;;;0.47;0.47;;;5.40;99.90;;;;;;5046199;28;20041;-83
2022/12/04 03:52:26;;;;;;;0.77;0.73;;;5.50;99.90;;;;;;5047918;28;20041;-82
2022/12/04 03:55:24;;;;;;;1.60;1.27;;;5.40;99.90;;;;;;5039491;28;20045;-83
2022/12/04 03:57:54;;;;;;;0.65;0.65;;;5.30;99.90;;;;;;5028076;28;20570;-82
2022/12/04 04:00:21;;;;;;;1.10;0.65;;;5.30;99.90;;;;;;5047793;28;20035;-83
2022/12/04 04:02:50;;;;;;;1.13;1.08;;;5.30;99.90;;;;;;5047777;28;20033;-83
2022/12/04 04:05:16;;;;;;;0.52;0.52;;;5.40;99.90;;;;;;5047152;28;20032;-84
2022/12/04 04:07:47;;;;;;;0.13;0.13;;;5.40;99.90;;;;;;5029539;28;20034;-83
2022/12/04 04:10:16;;;;;;;2.92;1.42;;;5.40;99.90;;;;;;5040679;28;20734;-83
2022/12/04 04:24:14;;;;;;;0.95;0.95;;;5.20;99.90;;;;;;5048091;28;20119;-81
2022/12/04 04:26:44;;;;;;;2.63;1.10;;;5.20;99.90;;;;;;5048220;28;20024;-81
2022/12/04 04:29:11;;;;;;;0.40;0.40;;;5.20;99.90;;;;;;5048192;28;20032;-83
2022/12/04 04:31:42;;;;;;;0.27;0.27;;;5.30;99.90;;;;;;5029884;28;20032;-84
2022/12/04 04:34:19;;;;;;;0.52;0.30;;;5.30;99.90;;;;;;5028971;28;20679;-84
2022/12/04 04:36:45;;;;;;;;;;;5.20;99.90;;;;;;5040467;28;20032;-84
2022/12/04 04:39:30;;;;;;;0.50;0.50;;;5.30;99.90;;;;;;5047737;28;20038;-84
2022/12/04 04:42:21;;;;;;;3.10;0.73;;;5.20;99.90;;;;;;5047436;28;20029;-82
2022/12/04 04:44:52;;;;;;;0.45;0.45;;;5.30;99.90;;;;;;5045142;28;20025;-82
2022/12/04 04:47:32;;;;;;;2.40;0.80;;;5.30;99.90;;;;;;5046679;28;20071;-81
2022/12/04 04:50:00;;;;;;;0.30;0.30;;;5.30;99.90;;;;;;5046427;28;20670;-80
2022/12/04 04:52:27;;;;;;;0.40;0.40;;;5.30;99.90;;;;;;5047449;28;20029;-79
2022/12/04 04:54:54;;;;;;;1.08;1.00;;;5.30;99.90;;;;;;5046833;28;20036;-80
2022/12/04 04:57:28;;;;;;;0.20;0.20;;;5.40;99.90;;;;;;5047030;28;20102;-80
2022/12/04 04:59:54;;;;;;;0.65;0.65;;;5.40;99.90;;;;;;5046748;28;20033;-80
2022/12/04 05:02:19;;;;;;;0.63;0.63;;;5.50;99.90;;;;;;5046914;28;21005;-81
2022/12/04 05:04:45;;;;;;;0.30;0.30;;;5.40;99.90;;;;;;5047401;28;20029;-81
2022/12/04 05:07:11;;;;;;;0.85;0.85;;;5.40;99.90;;;;;;5047876;28;20392;-81
2022/12/04 05:09:36;;;;;;;0.20;0.20;;;5.40;99.90;;;;;;5031732;28;20064;-82
2022/12/04 05:12:02;;;;;;;0.10;0.10;;;5.40;99.90;;;;;;5062781;28;20044;-81
2022/12/04 05:14:28;;;;;;;0.25;0.25;;;5.40;99.90;;;;;;5047313;28;20033;-79
2022/12/04 05:16:53;;;;;;;0.15;0.15;;;5.40;99.90;;;;;;5049592;28;20033;-79
2022/12/04 05:22:03;;;;;;;0.10;0.10;;;5.40;99.90;;;;;;5050257;28;20075;-79
2022/12/04 05:24:29;;;;;;;1.15;1.05;;;5.40;99.90;;;;;;5050614;28;20021;-79
2022/12/04 05:26:54;;;;;;;0.75;0.70;;;5.30;99.90;;;;;;5050496;28;20032;-79
2022/12/04 05:29:20;;;;;;;0.17;0.17;;;5.40;99.90;;;;;;5050414;28;20083;-79
2022/12/04 05:31:46;;;;;;;0.20;0.20;;;5.30;99.90;;;;;;5050666;28;20040;-79
2022/12/04 05:34:11;;;;;;;0.25;0.25;;;5.30;99.90;;;;;;5048697;28;20033;-79
2022/12/04 05:36:37;;;;;;;0.35;0.35;;;5.30;99.90;;;;;;5051076;28;20033;-79
2022/12/04 05:39:03;;;;;;;0.88;0.85;;;5.20;99.90;;;;;;5050780;28;20039;-79
2022/12/04 05:41:28;;;;;;;0.77;0.77;;;5.20;99.90;;;;;;5050381;28;20135;-79
2022/12/04 05:43:54;;;;;;;0.80;0.55;;;5.30;99.90;;;;;;5051510;28;20025;-81
2022/12/04 05:46:20;;;;;;;1.13;0.60;;;5.30;99.90;;;;;;5050704;28;20017;-80
2022/12/04 05:48:45;;;;;;;0.30;0.30;;;5.40;99.90;;;;;;5050268;28;20824;-80
2022/12/04 05:51:11;;;;;;;0.30;0.30;;;5.40;99.90;;;;;;5050713;28;20117;-79
2022/12/04 05:53:37;;;;;;;1.00;1.00;;;5.50;99.90;;;;;;5051192;28;20036;-80
2022/12/04 05:56:04;;;;;;;0.38;0.38;;;5.50;99.90;;;;;;5051058;28;20074;-79
2022/12/04 05:58:30;;;;;;;0.65;0.52;;;5.40;99.90;;;;;;5050064;28;20029;-79
2022/12/04 06:00:55;;;;;;;0.65;0.65;;;5.30;99.90;;;;;;5050586;28;20675;-79
2022/12/04 06:03:21;;;;;;;0.10;0.10;;;5.20;99.90;;;;;;5049982;28;20029;-79
2022/12/04 06:05:47;;;;;;;0.10;0.10;;;5.10;99.90;;;;;;5050222;28;20060;-79
2022/12/04 06:08:13;;;;;;;0.52;0.52;;;5.20;99.90;;;;;;5032733;28;20056;-79
2022/12/04 06:10:39;;;;;;;0.15;0.15;;;5.20;99.90;;;;;;5050610;28;20415;-79
2022/12/04 06:13:05;;;;;;;0.25;0.25;;;5.20;99.90;;;;;;5050659;28;20029;-79
2022/12/04 06:15:36;;;;;;;0.10;0.10;;;5.10;99.90;;;;;;5050731;28;20063;-79
2022/12/04 06:18:01;;;;;;;0.35;0.35;;;5.10;99.90;;;;;;5049872;28;20324;-81
2022/12/04 06:20:27;;;;;;;3.00;0.43;;;5.00;99.90;;;;;;5050217;28;20021;-82
2022/12/04 06:22:53;;;;;;;0.45;0.45;;;5.10;99.90;;;;;;5047879;28;20075;-82
2022/12/04 06:25:18;;;;;;;0.40;0.40;;;5.10;99.90;;;;;;5031972;28;20024;-81
2022/12/04 06:27:44;;;;;;;0.10;0.10;;;5.10;99.90;;;;;;5049331;28;20033;-81
2022/12/04 06:30:10;;;;;;;0.50;0.50;;;5.10;99.90;;;;;;5050149;28;20078;-80
2022/12/04 06:32:36;;;;;;;0.20;0.20;;;5.00;99.90;;;;;;5049684;28;20110;-80
2022/12/04 06:35:01;;;;;;;0.10;0.10;;;5.00;99.90;;;;;;5031823;28;20064;-81
2022/12/04 06:37:27;;;;;;;8.30;0.85;;;5.10;99.90;;;;;;5031729;28;20037;-81
2022/12/04 06:39:53;;;;;;;0.40;0.40;;;5.10;99.90;;;;;;5050215;28;20037;-81
2022/12/04 06:42:19;;;;;;;0.28;0.28;;;5.20;99.90;;;;;;5050514;28;20017;-81
2022/12/04 06:44:44;;;;;;;8.75;1.30;;;5.30;99.90;;;;;;5050012;28;20039;-82
2022/12/04 06:47:10;;;;;;;0.32;0.32;;;5.30;99.90;;;;;;5032222;28;20033;-80
2022/12/04 06:49:35;;;;;;;0.10;0.10;;;5.30;99.90;;;;;;5049295;28;20063;-80
2022/12/04 06:52:01;;;;;;;0.20;0.20;;;5.20;99.90;;;;;;5049598;28;20541;-80
2022/12/04 06:54:27;;;;;;;0.10;0.10;;;5.20;99.90;;;;;;5049219;28;20634;-80
2022/12/04 06:56:53;;;;;;;0.10;0.10;;;5.30;99.90;;;;;;5049574;28;20057;-81
2022/12/04 06:59:18;;;;;;;0.20;0.20;;;5.20;99.90;;;;;;5031393;28;20032;-80
2022/12/04 07:01:44;;;;;;;1.35;0.75;;;5.30;99.90;;;;;;5048879;28;20079;-80
2022/12/04 07:04:10;;;;;;;0.30;0.30;;;5.30;99.90;;;;;;5048654;28;20029;-81
2022/12/04 07:06:37;;;;;;;1.33;0.70;;;5.30;99.90;;;;;;5048816;28;20571;-80
2022/12/04 07:09:09;;;;;;;0.40;0.40;;;5.20;99.90;;;;;;5049012;28;20029;-79
2022/12/04 07:11:35;;;;;;;0.20;0.20;;;5.20;99.90;;;;;;5049081;28;20036;-78
2022/12/04 07:14:01;;;;;;;0.28;0.28;;;5.10;99.90;;;;;;5049082;28;20037;-78
2022/12/04 07:16:27;;;;;;;0.47;0.47;;;5.20;99.90;;;;;;5055433;28;20044;-79
2022/12/04 07:18:55;;;;;;;0.17;0.17;;;5.20;99.90;;;;;;5048783;28;20037;-79
2022/12/04 07:21:23;;;;;;;0.40;0.40;;;5.30;99.90;;;;;;5048622;28;20025;-80
2022/12/04 07:23:51;;;;;;;0.25;0.22;;;5.30;99.90;;;;;;5048352;28;20028;-80
2022/12/04 07:26:17;;;;;;;2.42;1.60;;;5.30;99.90;;;;;;5049036;28;20016;-80
2022/12/04 07:28:44;;;;;;;0.60;0.60;;;5.30;99.90;;;;;;5030955;28;20810;-80
2022/12/04 07:31:18;;;;;;;1.13;0.73;;;5.20;99.90;;;;;;5048758;28;20033;-79
2022/12/04 07:33:44;;;;;;;0.30;0.30;;;5.30;99.90;;;;;;5048884;28;20033;-80
2022/12/04 07:36:13;;;;;;;0.73;0.73;;;5.30;99.90;;;;;;5048756;28;20036;-80
2022/12/04 07:38:39;;;;;;;0.63;0.63;;;5.30;99.90;;;;;;5048138;28;20060;-87
2022/12/04 07:41:06;;;;;;;0.50;0.50;;;5.30;99.90;;;;;;5031077;28;20032;-85
2022/12/04 07:43:32;;;;;;;0.95;0.80;;;5.30;99.90;;;;;;5041037;28;20589;-85
2022/12/04 07:46:03;;;;;;;1.67;1.45;;;5.30;99.90;;;;;;5047574;28;20033;-84
2022/12/04 07:48:28;;;;;;;0.57;0.57;;;5.40;99.90;;;;;;5029689;28;20786;-86
2022/12/04 07:51:10;;;;;;;0.80;0.57;;;5.40;99.90;;;;;;5045049;28;20040;-86
2022/12/04 07:53:36;;;;;;;0.43;0.43;;;5.30;99.90;;;;;;5047288;28;20070;-84
2022/12/04 07:56:04;;;;;;;0.30;0.30;;;5.30;99.90;;;;;;5042135;28;20029;-82
2022/12/04 07:58:30;;;;;;;2.45;0.98;;;5.40;99.90;;;;;;5029221;28;20460;-87
2022/12/04 08:01:06;;;;;;;0.35;0.35;;;5.40;99.90;;;;;;5047945;28;20058;-91
2022/12/04 08:03:32;;;;;;;1.42;1.15;;;5.40;99.90;;;;;;5046226;28;20017;-92
2022/12/04 08:06:02;;;;;;;1.83;1.73;;;5.30;99.90;;;;;;5042305;28;20036;-87
2022/12/04 08:08:28;;;;;;;0.80;0.80;;;5.40;99.90;;;;;;5030986;28;20037;-89
2022/12/04 08:10:54;;;;;;;1.23;1.13;;;5.50;99.90;;;;;;5029428;28;20044;-92
2022/12/04 08:13:19;;;;;;;0.85;0.63;;;5.50;99.90;;;;;;5033221;28;20511;-89
2022/12/04 08:15:45;;;;;;;2.28;0.80;;;5.50;99.90;;;;;;5028503;28;20184;-87
2022/12/04 08:18:10;;;;;;;0.40;0.40;;;5.50;99.90;;;;;;5032658;28;20087;-87
2022/12/04 08:20:36;;;;;;;0.43;0.43;;;5.60;99.90;;;;;;5033864;28;20065;-86
2022/12/04 08:23:02;;;;;;;0.65;0.65;;;5.60;99.90;;;;;;5021655;28;20060;-86
2022/12/04 08:25:27;;;;;;;0.10;0.10;;;5.70;99.90;;;;;;5024384;28;20036;-86
2022/12/04 08:27:53;;;;;;;2.10;1.65;;;5.80;99.90;;;;;;5025558;28;20028;-87
2022/12/04 08:30:19;;;;;;;1.27;0.95;;;5.90;99.90;;;;;;5038143;28;20051;-84
2022/12/04 08:32:44;;;;;;;1.73;1.33;;;5.80;99.90;;;;;;5033429;28;20025;-84
2022/12/04 08:35:10;;;;;;;0.70;0.70;;;5.80;99.90;;;;;;5034425;28;20070;-86
2022/12/04 08:37:36;;;;;;;0.60;0.60;;;5.70;99.90;;;;;;5026778;28;20097;-85
2022/12/04 08:40:02;;;;;;;0.43;0.43;;;5.70;99.90;;;;;;5043603;28;20057;-86
2022/12/04 08:42:27;;;;;;;1.88;1.63;;;5.60;99.90;;;;;;5044693;28;20655;-86
2022/12/04 08:44:53;;;;;;;1.55;0.77;;;5.60;99.90;;;;;;5036670;28;20144;-85
2022/12/04 08:47:19;;;;;;;0.95;0.95;;;5.50;99.90;;;;;;5034500;28;20025;-82
2022/12/04 08:49:44;;;;;;;1.23;1.13;;;5.60;99.90;;;;;;5039772;28;20047;-86
2022/12/04 08:52:10;;;;;;;0.55;0.55;;;5.60;99.90;;;;;;5042429;28;20627;-82
2022/12/04 08:54:36;;;;;;;1.33;1.13;;;5.50;99.90;;;;;;5044416;28;20117;-83
2022/12/04 08:57:02;;;;;;;1.85;0.90;;;5.40;99.90;;;;;;5044235;28;20041;-81
2022/12/04 08:59:28;;;;;;;0.65;0.65;;;5.60;99.90;;;;;;5029359;28;20114;-81
2022/12/04 09:01:54;;;;;;;0.90;0.90;;;5.50;99.90;;;;;;5042701;28;20029;-80
2022/12/04 09:04:19;;;;;;;2.03;1.75;;;5.60;99.90;;;;;;5048034;28;20505;-82
2022/12/04 09:06:45;;;;;;;1.30;1.23;;;5.70;99.90;;;;;;5045649;28;20423;-82
2022/12/04 09:09:11;;;;;;;2.08;1.55;;;5.80;99.90;;;;;;5051660;28;20040;-81
2022/12/04 09:11:37;;;;;;;1.80;1.70;;;5.70;99.90;;;;;;5048818;28;20087;-80
2022/12/04 09:14:03;;;;;;;1.13;1.02;;;5.70;99.90;;;;;;5049710;28;20835;-79
2022/12/04 09:16:29;;;;;;;0.75;0.75;;;5.50;99.90;;;;;;5049288;28;20025;-80
2022/12/04 09:18:55;;;;;;;4.95;3.38;;;5.60;99.90;;;;;;5049180;28;20033;-82
2022/12/04 09:21:23;;;;;;;4.20;2.80;;;5.50;99.90;;;;;;5049181;28;20471;-82
2022/12/04 09:23:50;;;;;;;2.28;1.85;;;5.80;99.90;;;;;;5049831;28;20044;-80
2022/12/04 09:26:20;;;;;;;2.10;1.60;;;5.90;99.90;;;;;;5047731;28;20025;-83
2022/12/04 09:28:46;;;;;;;1.85;1.75;;;6.00;99.90;;;;;;5049564;28;20029;-83
2022/12/04 09:31:12;;;;;;;1.88;1.15;;;6.00;99.90;;;;;;5050882;28;20032;-82
2022/12/04 09:33:38;;;;;;;0.98;0.98;;;6.00;99.90;;;;;;5049956;28;20037;-82
2022/12/04 09:36:04;;;;;;;0.28;0.28;;;6.00;99.90;;;;;;5055797;28;20072;-83
2022/12/04 09:38:30;;;;;;;2.88;2.63;;;6.10;99.90;;;;;;5051816;28;20060;-83
2022/12/04 09:41:04;;;;;;;0.85;0.85;;;6.10;99.90;;;;;;5032336;28;20028;-84
2022/12/04 09:43:45;;;;;;;1.23;1.13;;;6.00;99.90;;;;;;5049697;28;20028;-84
2022/12/04 09:46:19;;;;;;;0.55;0.55;;;6.10;99.90;;;;;;5043521;28;20059;-84
2022/12/04 09:48:47;;;;;;;0.70;0.70;;;6.20;99.90;;;;;;5048684;28;20029;-83
2022/12/04 09:51:17;;;;;;;0.55;0.55;;;6.40;99.90;;;;;;5047213;28;20040;-83
2022/12/04 09:54:01;;;;;;;1.48;1.38;;;6.40;99.90;;;;;;5045520;28;20025;-81
2022/12/04 09:56:31;;;;;;;0.70;0.70;;;6.20;99.90;;;;;;5048525;28;20056;-81
2022/12/04 09:59:10;;;;;;;0.45;0.45;;;6.20;99.90;;;;;;5049460;28;20040;-81
2022/12/04 10:02:06;;;;;;;3.33;0.82;;;6.10;99.90;;;;;;5048939;28;20516;-80
2022/12/04 10:04:32;;;;;;;;;;;6.10;99.90;;;;;;5038564;28;20064;-87
2022/12/04 10:07:15;;;;;;;0.30;0.30;;;6.20;99.90;;;;;;5031927;28;19955;-83
2022/12/04 10:09:49;;;;;;;1.02;1.02;;;6.30;99.90;;;;;;5049717;28;20059;-82
2022/12/04 10:12:30;;;;;;;2.15;0.50;;;6.50;99.90;;;;;;5061175;28;20041;-82
2022/12/04 10:15:14;;;;;;;1.15;1.08;;;6.70;99.90;;;;;;5048883;28;20040;-83
2022/12/04 10:18:06;;;;;;;0.93;0.93;;;6.50;99.90;;;;;;5048788;28;20041;-83
2022/12/04 10:20:46;;;;;;;0.90;0.90;;;6.40;99.90;;;;;;5045622;28;20106;-83
2022/12/04 10:23:28;;;;;;;1.60;0.95;;;6.30;99.90;;;;;;5046166;28;20029;-83
2022/12/04 10:25:54;;;;;;;0.63;0.63;;;6.40;99.90;;;;;;5047547;28;20032;-84
2022/12/04 10:28:37;;;;;;;1.02;1.02;;;6.50;99.90;;;;;;5048854;28;20710;-84
2022/12/04 10:31:08;;;;;;;2.35;2.13;;;6.50;99.90;;;;;;5030798;28;20116;-84
2022/12/04 10:33:43;;;;;;;1.08;1.00;;;6.50;99.90;;;;;;5030840;28;20029;-82
2022/12/04 10:36:17;;;;;;;2.38;1.98;;;6.40;99.90;;;;;;5022555;28;20033;-84
2022/12/04 10:38:57;;;;;;;0.88;0.77;;;6.40;99.90;;;;;;5049330;28;20036;-82
2022/12/04 10:41:49;;;;;;;1.30;1.20;;;6.30;99.90;;;;;;5048986;28;20036;-84
2022/12/04 10:44:18;;;;;;;0.70;0.43;;;6.40;99.90;;;;;;5029734;28;20025;-83
2022/12/04 10:46:44;;;;;;;1.15;1.08;;;6.40;99.90;;;;;;5048945;28;20055;-83
2022/12/04 10:49:24;;;;;;;0.45;0.45;;;6.40;99.90;;;;;;5047913;28;20033;-83
2022/12/04 10:51:50;;;;;;;0.65;0.65;;;6.20;99.90;;;;;;5029742;28;20037;-83
2022/12/04 10:54:29;;;;;;;1.02;0.90;;;6.20;99.90;;;;;;5030743;28;20033;-83
2022/12/04 10:56:57;;;;;;;1.08;1.08;;;6.10;99.90;;;;;;5028506;28;20118;-84
2022/12/04 10:59:24;;;;;;;0.40;0.40;;;6.20;99.90;;;;;;5047918;28;20117;-84
2022/12/04 11:01:57;;;;;;;0.52;0.52;;;6.20;99.90;;;;;;5045551;28;20136;-85
2022/12/04 11:04:25;;;;;;;1.75;1.65;;;6.20;99.90;;;;;;5047616;28;20033;-84
2022/12/04 11:07:05;;;;;;;0.77;0.77;;;6.30;99.90;;;;;;5047914;28;20778;-81
2022/12/04 11:09:31;;;;;;;1.13;1.05;;;6.50;99.90;;;;;;5045530;28;20031;-84
2022/12/04 11:12:16;;;;;;;0.73;0.73;;;6.50;99.90;;;;;;5030454;28;20061;-85
2022/12/04 11:14:41;;;;;;;3.17;1.90;;;6.50;99.90;;;;;;5047344;28;20037;-84
2022/12/04 11:17:17;;;;;;;1.30;1.20;;;6.60;99.90;;;;;;5053618;28;20039;-87
2022/12/04 11:19:44;;;;;;;3.63;3.33;;;6.90;99.90;;;;;;5033162;28;20064;-89
2022/12/04 11:22:15;;;;;;;2.55;2.35;;;6.90;99.90;;;;;;5067159;28;20275;-83
2022/12/04 11:24:48;;;;;;;3.08;2.13;;;6.90;99.90;;;;;;5028476;28;20032;-84
2022/12/04 11:27:26;;;;;;;2.83;1.48;;;6.90;99.90;;;;;;5029271;28;20079;-83
2022/12/04 11:29:53;;;;;;;2.22;2.13;;;6.80;99.90;;;;;;5045738;28;20521;-84
2022/12/04 11:32:28;;;;;;;3.67;3.15;;;6.70;99.90;;;;;;5047981;28;20029;-83
2022/12/04 11:34:58;;;;;;;2.55;2.35;;;6.80;99.90;;;;;;5040483;28;20029;-82
2022/12/04 11:37:34;;;;;;;3.45;2.00;;;6.80;99.90;;;;;;5047998;28;20082;-83
2022/12/04 11:40:05;;;;;;;1.48;1.38;;;6.90;99.90;;;;;;5047265;28;20040;-83
2022/12/04 11:42:31;;;;;;;2.97;2.67;;;6.60;99.90;;;;;;5036656;28;20028;-82
2022/12/04 11:45:20;;;;;;;1.15;1.13;;;6.70;99.90;;;;;;5049532;28;20098;-83
2022/12/04 11:47:54;;;;;;;0.45;0.45;;;6.80;99.90;;;;;;5040532;28;20040;-83
2022/12/04 11:50:38;;;;;;;0.52;0.52;;;6.90;99.90;;;;;;5048115;28;20555;-83
2022/12/04 11:53:23;;;;;;;0.95;0.60;;;6.90;99.90;;;;;;5030046;28;20044;-83
2022/12/04 11:56:21;;;;;;;1.40;1.15;;;6.90;99.90;;;;;;5047290;28;20096;-83
2022/12/04 11:59:11;;;;;;;0.75;0.75;;;6.80;99.90;;;;;;5047706;28;20037;-83
2022/12/04 12:01:55;;;;;;;1.40;1.33;;;6.90;99.90;;;;;;5044506;28;20028;-83
2022/12/04 12:04:44;;;;;;;0.70;0.70;;;7.00;99.90;;;;;;5045430;28;20064;-82
2022/12/04 12:07:26;;;;;;;0.45;0.45;;;7.10;99.90;;;;;;5046488;28;20033;-82
2022/12/04 12:10:00;;;;;;;0.40;0.40;;;7.10;99.90;;;;;;5047501;28;20508;-84
2022/12/04 12:12:59;;;;;;;0.88;0.88;;;7.20;99.90;;;;;;5048076;28;20092;-83
2022/12/04 12:15:52;;;;;;;0.50;0.43;;;7.30;99.90;;;;;;5047254;28;20037;-83
2022/12/04 12:18:21;;;;;;;0.45;0.45;;;7.20;99.90;;;;;;5045743;28;20436;-84
2022/12/04 12:21:07;;;;;;;0.70;0.70;;;7.00;99.90;;;;;;5051874;28;20032;-84
2022/12/04 12:24:02;;;;;;;1.90;1.58;;;7.00;99.90;;;;;;5028316;28;20660;-81
2022/12/04 12:26:57;;;;;;;0.35;0.35;;;7.00;99.90;;;;;;5040875;28;20056;-82
2022/12/04 12:30:07;;;;;;;1.08;1.05;;;6.90;99.90;;;;;;5025952;28;20144;-82
2022/12/04 12:32:44;;;;;;;0.75;0.63;;;6.60;99.90;;;;;;5037645;28;20079;-82
2022/12/04 12:35:28;;;;;;;2.80;1.35;;;6.50;99.90;;;;;;5029610;28;20025;-82
2022/12/04 12:38:01;;;;;;;0.60;0.60;;;6.40;99.90;;;;;;5047151;28;20041;-84
2022/12/04 12:40:55;;;;;;;0.77;0.77;;;6.50;99.90;;;;;;5029414;28;20043;-86
2022/12/04 12:43:30;;;;;;;1.20;1.15;;;6.50;99.90;;;;;;5027326;28;20052;-86
2022/12/04 12:45:58;;;;;;;2.30;1.75;;;6.70;99.90;;;;;;5048106;28;20234;-87
2022/12/04 12:48:48;;;;;;;1.00;1.00;;;6.90;99.90;;;;;;5047894;28;20377;-86
2022/12/04 12:51:56;;;;;;;1.50;1.40;;;6.90;99.90;;;;;;5058527;28;20407;-84
2022/12/04 12:54:50;;;;;;;2.47;1.02;;;6.90;99.90;;;;;;5034725;28;20041;-86
2022/12/04 12:57:32;;;;;;;1.45;0.93;;;6.90;99.90;;;;;;5017206;28;20071;-86
2022/12/04 13:00:14;;;;;;;0.68;0.68;;;7.00;99.90;;;;;;5043568;28;20190;-86
2022/12/04 13:02:57;;;;;;;1.73;1.15;;;7.00;99.90;;;;;;5046730;28;20025;-86
2022/12/04 13:05:37;;;;;;;0.73;0.73;;;7.00;99.90;;;;;;5018139;28;20057;-86
2022/12/04 13:08:49;;;;;;;0.60;0.60;;;7.00;99.90;;;;;;5045089;28;20028;-85
2022/12/04 13:11:21;;;;;;;0.55;0.55;;;7.00;99.90;;;;;;5020574;28;20060;-86
2022/12/04 13:13:57;;;;;;;0.90;0.90;;;7.10;99.90;;;;;;5028999;28;20033;-86
2022/12/04 13:16:35;;;;;;;1.08;1.08;;;7.10;99.90;;;;;;5045195;28;20622;-86
2022/12/04 13:19:10;;;;;;;0.55;0.55;;;7.00;99.90;;;;;;5028607;28;20041;-86
2022/12/04 13:22:17;;;;;;;0.80;0.80;;;7.10;99.90;;;;;;5046655;28;20035;-84
2022/12/04 13:25:08;;;;;;;0.20;0.20;;;7.30;99.90;;;;;;5032723;28;20036;-84
2022/12/04 13:28:12;;;;;;;0.50;0.50;;;7.50;99.90;;;;;;5029226;28;20033;-82
2022/12/04 13:30:55;;;;;;;0.35;0.35;;;7.60;99.90;;;;;;5047118;28;20025;-83
2022/12/04 13:34:09;;;;;;;0.80;0.73;;;7.70;99.90;;;;;;5040493;28;20083;-83
2022/12/04 13:36:51;;;;;;;0.10;0.10;;;7.70;99.90;;;;;;5046294;28;20028;-83
2022/12/04 13:39:32;;;;;;;1.05;1.00;;;7.70;99.90;;;;;;5071974;28;20037;-84